sensor_id;sensor_type;location;lat;lon;timestamp;P1;durP1;ratioP1;P2;durP2;ratioP2
48871;SDS011;36154;51.674;7.824;2023-02-01T00:01:21;0.40;;;0.30;;
48871;SDS011;36154;51.674;7.824;2023-02-01T00:03:46;0.80;;;0.40;;
48871;SDS011;36154;51.674;7.824;2023-02-01T00:06:11;0.52;;;0.20;;
48871;SDS011;36154;51.674;7.824;2023-02-01T00:08:37;0.30;;;0.30;;
48871;SDS011;36154;51.674;7.824;2023-02-01T00:11:03;1.15;;;0.22;;
48871;SDS011;36154;51.674;7.824;2023-02-01T00:13:30;0.30;;;0.30;;
48871;SDS011;36154;51.674;7.824;2023-02-01T00:16:04;0.32;;;0.20;;
48871;SDS011;36154;51.674;7.824;2023-02-01T00:18:30;0.22;;;0.22;;
48871;SDS011;36154;51.674;7.824;2023-02-01T00:20:56;0.32;;;0.32;;
48871;SDS011;36154;51.674;7.824;2023-02-01T00:23:21;0.73;;;0.40;;
48871;SDS011;36154;51.674;7.824;2023-02-01T00:25:47;0.30;;;0.30;;
48871;SDS011;36154;51.674;7.824;2023-02-01T00:28:14;0.30;;;0.30;;
48871;SDS011;36154;51.674;7.824;2023-02-01T00:30:40;0.30;;;0.20;;
48871;SDS011;36154;51.674;7.824;2023-02-01T00:33:05;0.30;;;0.20;;
48871;SDS011;36154;51.674;7.824;2023-02-01T00:35:30;0.30;;;0.30;;
48871;SDS011;36154;51.674;7.824;2023-02-01T00:37:56;0.75;;;0.30;;
48871;SDS011;36154;51.674;7.824;2023-02-01T00:40:24;0.30;;;0.30;;
48871;SDS011;36154;51.674;7.824;2023-02-01T00:42:49;0.63;;;0.30;;
48871;SDS011;36154;51.674;7.824;2023-02-01T00:45:14;0.82;;;0.30;;
48871;SDS011;36154;51.674;7.824;2023-02-01T00:47:40;0.25;;;0.25;;
48871;SDS011;36154;51.674;7.824;2023-02-01T00:50:05;0.68;;;0.38;;
48871;SDS011;36154;51.674;7.824;2023-02-01T00:52:30;0.65;;;0.30;;
48871;SDS011;36154;51.674;7.824;2023-02-01T00:54:56;0.40;;;0.30;;
48871;SDS011;36154;51.674;7.824;2023-02-01T00:57:21;0.43;;;0.35;;
48871;SDS011;36154;51.674;7.824;2023-02-01T00:59:46;0.30;;;0.30;;
48871;SDS011;36154;51.674;7.824;2023-02-01T01:02:14;0.60;;;0.30;;
48871;SDS011;36154;51.674;7.824;2023-02-01T01:04:39;0.40;;;0.20;;
48871;SDS011;36154;51.674;7.824;2023-02-01T01:07:05;0.43;;;0.43;;
48871;SDS011;36154;51.674;7.824;2023-02-01T01:09:30;0.55;;;0.40;;
48871;SDS011;36154;51.674;7.824;2023-02-01T01:11:56;1.08;;;0.40;;
48871;SDS011;36154;51.674;7.824;2023-02-01T01:14:21;0.52;;;0.20;;
48871;SDS011;36154;51.674;7.824;2023-02-01T01:16:46;0.20;;;0.20;;
48871;SDS011;36154;51.674;7.824;2023-02-01T01:19:12;0.55;;;0.30;;
48871;SDS011;36154;51.674;7.824;2023-02-01T01:21:37;0.68;;;0.30;;
48871;SDS011;36154;51.674;7.824;2023-02-01T01:24:03;0.75;;;0.45;;
48871;SDS011;36154;51.674;7.824;2023-02-01T01:26:29;0.43;;;0.30;;
48871;SDS011;36154;51.674;7.824;2023-02-01T01:28:56;0.40;;;0.20;;
48871;SDS011;36154;51.674;7.824;2023-02-01T01:31:22;0.32;;;0.30;;
48871;SDS011;36154;51.674;7.824;2023-02-01T01:33:51;0.30;;;0.30;;
48871;SDS011;36154;51.674;7.824;2023-02-01T01:36:18;0.30;;;0.30;;
48871;SDS011;36154;51.674;7.824;2023-02-01T01:38:43;0.60;;;0.40;;
48871;SDS011;36154;51.674;7.824;2023-02-01T01:41:11;0.73;;;0.30;;
48871;SDS011;36154;51.674;7.824;2023-02-01T01:43:52;0.50;;;0.43;;
48871;SDS011;36154;51.674;7.824;2023-02-01T01:46:19;0.50;;;0.40;;
48871;SDS011;36154;51.674;7.824;2023-02-01T01:48:47;0.47;;;0.30;;
48871;SDS011;36154;51.674;7.824;2023-02-01T01:51:16;1.10;;;0.40;;
48871;SDS011;36154;51.674;7.824;2023-02-01T01:53:48;0.20;;;0.20;;
48871;SDS011;36154;51.674;7.824;2023-02-01T01:56:20;0.63;;;0.30;;
48871;SDS011;36154;51.674;7.824;2023-02-01T01:58:46;0.47;;;0.20;;
48871;SDS011;36154;51.674;7.824;2023-02-01T02:01:11;0.25;;;0.22;;
48871;SDS011;36154;51.674;7.824;2023-02-01T02:03:40;0.55;;;0.40;;
48871;SDS011;36154;51.674;7.824;2023-02-01T02:06:56;0.95;;;0.40;;
48871;SDS011;36154;51.674;7.824;2023-02-01T02:08:55;0.30;;;0.30;;
48871;SDS011;36154;51.674;7.824;2023-02-01T02:11:21;0.75;;;0.20;;
48871;SDS011;36154;51.674;7.824;2023-02-01T02:13:48;1.52;;;0.43;;
48871;SDS011;36154;51.674;7.824;2023-02-01T02:33:21;0.65;;;0.25;;
48871;SDS011;36154;51.674;7.824;2023-02-01T02:41:02;0.40;;;0.28;;
48871;SDS011;36154;51.674;7.824;2023-02-01T02:43:58;0.82;;;0.20;;
48871;SDS011;36154;51.674;7.824;2023-02-01T02:46:46;0.57;;;0.30;;
48871;SDS011;36154;51.674;7.824;2023-02-01T02:49:35;0.30;;;0.28;;
48871;SDS011;36154;51.674;7.824;2023-02-01T02:52:12;1.00;;;0.40;;
48871;SDS011;36154;51.674;7.824;2023-02-01T02:55:00;0.65;;;0.30;;
48871;SDS011;36154;51.674;7.824;2023-02-01T02:57:32;0.50;;;0.30;;
48871;SDS011;36154;51.674;7.824;2023-02-01T03:00:21;0.20;;;0.20;;
48871;SDS011;36154;51.674;7.824;2023-02-01T03:03:08;0.30;;;0.20;;
48871;SDS011;36154;51.674;7.824;2023-02-01T03:05:52;0.50;;;0.30;;
48871;SDS011;36154;51.674;7.824;2023-02-01T03:08:19;0.50;;;0.47;;
48871;SDS011;36154;51.674;7.824;2023-02-01T03:21:23;0.32;;;0.30;;
48871;SDS011;36154;51.674;7.824;2023-02-01T03:23:52;0.50;;;0.40;;
48871;SDS011;36154;51.674;7.824;2023-02-01T03:26:20;0.43;;;0.35;;
48871;SDS011;36154;51.674;7.824;2023-02-01T03:28:50;0.57;;;0.30;;
48871;SDS011;36154;51.674;7.824;2023-02-01T03:33:48;0.28;;;0.20;;
48871;SDS011;36154;51.674;7.824;2023-02-01T03:41:51;0.65;;;0.47;;
48871;SDS011;36154;51.674;7.824;2023-02-01T03:47:06;0.43;;;0.38;;
48871;SDS011;36154;51.674;7.824;2023-02-01T03:49:41;1.35;;;0.40;;
48871;SDS011;36154;51.674;7.824;2023-02-01T03:52:13;0.47;;;0.38;;
48871;SDS011;36154;51.674;7.824;2023-02-01T03:54:43;0.20;;;0.20;;
48871;SDS011;36154;51.674;7.824;2023-02-01T03:57:11;0.40;;;0.30;;
48871;SDS011;36154;51.674;7.824;2023-02-01T03:59:39;0.63;;;0.30;;
48871;SDS011;36154;51.674;7.824;2023-02-01T04:02:06;0.43;;;0.40;;
48871;SDS011;36154;51.674;7.824;2023-02-01T04:04:31;0.85;;;0.40;;
48871;SDS011;36154;51.674;7.824;2023-02-01T04:06:58;1.50;;;0.50;;
48871;SDS011;36154;51.674;7.824;2023-02-01T04:09:23;1.00;;;0.40;;
48871;SDS011;36154;51.674;7.824;2023-02-01T04:11:48;1.23;;;0.60;;
48871;SDS011;36154;51.674;7.824;2023-02-01T04:14:13;0.40;;;0.30;;
48871;SDS011;36154;51.674;7.824;2023-02-01T04:16:39;0.85;;;0.38;;
48871;SDS011;36154;51.674;7.824;2023-02-01T04:19:04;0.40;;;0.40;;
48871;SDS011;36154;51.674;7.824;2023-02-01T04:21:29;1.55;;;0.40;;
48871;SDS011;36154;51.674;7.824;2023-02-01T04:23:56;0.70;;;0.40;;
48871;SDS011;36154;51.674;7.824;2023-02-01T04:26:21;0.73;;;0.40;;
48871;SDS011;36154;51.674;7.824;2023-02-01T04:28:46;0.57;;;0.40;;
48871;SDS011;36154;51.674;7.824;2023-02-01T04:31:13;0.30;;;0.30;;
48871;SDS011;36154;51.674;7.824;2023-02-01T04:33:38;0.73;;;0.38;;
48871;SDS011;36154;51.674;7.824;2023-02-01T04:36:04;0.63;;;0.40;;
48871;SDS011;36154;51.674;7.824;2023-02-01T04:38:29;0.60;;;0.40;;
48871;SDS011;36154;51.674;7.824;2023-02-01T04:40:57;0.82;;;0.55;;
48871;SDS011;36154;51.674;7.824;2023-02-01T04:43:22;0.52;;;0.40;;
48871;SDS011;36154;51.674;7.824;2023-02-01T04:45:48;1.00;;;0.40;;
48871;SDS011;36154;51.674;7.824;2023-02-01T04:48:15;0.68;;;0.60;;
48871;SDS011;36154;51.674;7.824;2023-02-01T04:50:42;0.88;;;0.47;;
48871;SDS011;36154;51.674;7.824;2023-02-01T04:53:10;0.30;;;0.30;;
48871;SDS011;36154;51.674;7.824;2023-02-01T04:55:35;1.05;;;0.45;;
48871;SDS011;36154;51.674;7.824;2023-02-01T04:58:00;0.68;;;0.50;;
48871;SDS011;36154;51.674;7.824;2023-02-01T05:00:26;0.60;;;0.50;;
48871;SDS011;36154;51.674;7.824;2023-02-01T05:02:51;0.52;;;0.52;;
48871;SDS011;36154;51.674;7.824;2023-02-01T05:05:16;0.95;;;0.50;;
48871;SDS011;36154;51.674;7.824;2023-02-01T05:07:41;0.50;;;0.40;;
48871;SDS011;36154;51.674;7.824;2023-02-01T05:10:07;0.30;;;0.30;;
48871;SDS011;36154;51.674;7.824;2023-02-01T05:12:33;0.50;;;0.40;;
48871;SDS011;36154;51.674;7.824;2023-02-01T05:15:17;0.57;;;0.50;;
48871;SDS011;36154;51.674;7.824;2023-02-01T05:17:42;1.17;;;0.40;;
48871;SDS011;36154;51.674;7.824;2023-02-01T05:20:08;1.77;;;0.65;;
48871;SDS011;36154;51.674;7.824;2023-02-01T05:22:33;1.17;;;0.40;;
48871;SDS011;36154;51.674;7.824;2023-02-01T05:24:59;0.98;;;0.50;;
48871;SDS011;36154;51.674;7.824;2023-02-01T05:27:24;0.88;;;0.65;;
48871;SDS011;36154;51.674;7.824;2023-02-01T05:29:49;4.47;;;1.10;;
48871;SDS011;36154;51.674;7.824;2023-02-01T05:32:15;2.88;;;1.70;;
48871;SDS011;36154;51.674;7.824;2023-02-01T05:34:40;9.45;;;2.03;;
48871;SDS011;36154;51.674;7.824;2023-02-01T05:37:05;6.10;;;1.48;;
48871;SDS011;36154;51.674;7.824;2023-02-01T05:39:33;5.68;;;2.03;;
48871;SDS011;36154;51.674;7.824;2023-02-01T05:41:58;8.00;;;2.13;;
48871;SDS011;36154;51.674;7.824;2023-02-01T05:44:24;8.57;;;2.35;;
48871;SDS011;36154;51.674;7.824;2023-02-01T05:46:49;8.35;;;2.85;;
48871;SDS011;36154;51.674;7.824;2023-02-01T05:49:16;10.43;;;2.95;;
48871;SDS011;36154;51.674;7.824;2023-02-01T05:51:42;10.10;;;2.95;;
48871;SDS011;36154;51.674;7.824;2023-02-01T05:54:08;10.80;;;2.90;;
48871;SDS011;36154;51.674;7.824;2023-02-01T05:56:33;10.90;;;2.65;;
48871;SDS011;36154;51.674;7.824;2023-02-01T05:58:58;5.80;;;2.03;;
48871;SDS011;36154;51.674;7.824;2023-02-01T06:01:24;8.63;;;2.00;;
48871;SDS011;36154;51.674;7.824;2023-02-01T06:03:49;6.68;;;2.10;;
48871;SDS011;36154;51.674;7.824;2023-02-01T06:06:14;6.45;;;2.22;;
48871;SDS011;36154;51.674;7.824;2023-02-01T06:08:39;7.72;;;2.50;;
48871;SDS011;36154;51.674;7.824;2023-02-01T06:11:05;6.57;;;2.50;;
48871;SDS011;36154;51.674;7.824;2023-02-01T06:13:31;7.45;;;1.85;;
48871;SDS011;36154;51.674;7.824;2023-02-01T06:15:57;6.20;;;1.77;;
48871;SDS011;36154;51.674;7.824;2023-02-01T06:18:23;4.25;;;1.77;;
48871;SDS011;36154;51.674;7.824;2023-02-01T06:20:53;3.63;;;1.70;;
48871;SDS011;36154;51.674;7.824;2023-02-01T06:23:21;10.20;;;2.07;;
48871;SDS011;36154;51.674;7.824;2023-02-01T06:25:48;4.85;;;1.55;;
48871;SDS011;36154;51.674;7.824;2023-02-01T06:28:17;5.35;;;1.55;;
48871;SDS011;36154;51.674;7.824;2023-02-01T06:30:42;3.58;;;1.67;;
48871;SDS011;36154;51.674;7.824;2023-02-01T06:33:11;6.45;;;1.75;;
48871;SDS011;36154;51.674;7.824;2023-02-01T06:35:38;3.53;;;1.67;;
48871;SDS011;36154;51.674;7.824;2023-02-01T06:38:03;3.95;;;1.55;;
48871;SDS011;36154;51.674;7.824;2023-02-01T06:40:29;3.65;;;1.50;;
48871;SDS011;36154;51.674;7.824;2023-02-01T06:42:54;4.13;;;1.70;;
48871;SDS011;36154;51.674;7.824;2023-02-01T06:45:19;3.33;;;1.25;;
48871;SDS011;36154;51.674;7.824;2023-02-01T06:47:45;3.40;;;1.40;;
48871;SDS011;36154;51.674;7.824;2023-02-01T06:50:10;2.78;;;1.23;;
48871;SDS011;36154;51.674;7.824;2023-02-01T06:52:36;2.30;;;1.63;;
48871;SDS011;36154;51.674;7.824;2023-02-01T06:55:01;3.17;;;1.20;;
48871;SDS011;36154;51.674;7.824;2023-02-01T06:57:26;3.10;;;1.30;;
48871;SDS011;36154;51.674;7.824;2023-02-01T06:59:55;2.42;;;1.10;;
48871;SDS011;36154;51.674;7.824;2023-02-01T07:02:20;1.95;;;1.25;;
48871;SDS011;36154;51.674;7.824;2023-02-01T07:04:46;3.40;;;1.20;;
48871;SDS011;36154;51.674;7.824;2023-02-01T07:07:12;2.28;;;1.23;;
48871;SDS011;36154;51.674;7.824;2023-02-01T07:09:37;1.88;;;1.10;;
48871;SDS011;36154;51.674;7.824;2023-02-01T07:12:03;2.63;;;0.90;;
48871;SDS011;36154;51.674;7.824;2023-02-01T07:14:28;3.80;;;1.00;;
48871;SDS011;36154;51.674;7.824;2023-02-01T07:16:54;2.22;;;1.05;;
48871;SDS011;36154;51.674;7.824;2023-02-01T07:19:19;4.15;;;1.30;;
48871;SDS011;36154;51.674;7.824;2023-02-01T07:21:44;1.95;;;0.95;;
48871;SDS011;36154;51.674;7.824;2023-02-01T07:24:09;2.90;;;1.20;;
48871;SDS011;36154;51.674;7.824;2023-02-01T07:26:35;1.95;;;1.02;;
48871;SDS011;36154;51.674;7.824;2023-02-01T07:29:00;3.45;;;1.55;;
48871;SDS011;36154;51.674;7.824;2023-02-01T07:31:25;2.90;;;1.20;;
48871;SDS011;36154;51.674;7.824;2023-02-01T07:33:51;1.25;;;1.02;;
48871;SDS011;36154;51.674;7.824;2023-02-01T07:36:21;3.17;;;1.17;;
48871;SDS011;36154;51.674;7.824;2023-02-01T07:38:47;2.45;;;1.45;;
48871;SDS011;36154;51.674;7.824;2023-02-01T07:41:12;2.88;;;0.93;;
48871;SDS011;36154;51.674;7.824;2023-02-01T07:43:38;1.58;;;1.20;;
48871;SDS011;36154;51.674;7.824;2023-02-01T07:46:03;2.17;;;1.08;;
48871;SDS011;36154;51.674;7.824;2023-02-01T07:48:30;1.95;;;0.95;;
48871;SDS011;36154;51.674;7.824;2023-02-01T07:51:00;1.20;;;1.10;;
48871;SDS011;36154;51.674;7.824;2023-02-01T07:53:30;3.47;;;1.25;;
48871;SDS011;36154;51.674;7.824;2023-02-01T07:55:57;0.88;;;0.80;;
48871;SDS011;36154;51.674;7.824;2023-02-01T07:58:23;2.08;;;0.93;;
48871;SDS011;36154;51.674;7.824;2023-02-01T08:00:49;1.35;;;1.10;;
48871;SDS011;36154;51.674;7.824;2023-02-01T08:03:33;1.42;;;0.90;;
48871;SDS011;36154;51.674;7.824;2023-02-01T08:05:59;2.35;;;1.30;;
48871;SDS011;36154;51.674;7.824;2023-02-01T08:08:24;2.40;;;1.00;;
48871;SDS011;36154;51.674;7.824;2023-02-01T08:10:49;1.75;;;0.93;;
48871;SDS011;36154;51.674;7.824;2023-02-01T08:13:15;2.53;;;0.88;;
48871;SDS011;36154;51.674;7.824;2023-02-01T08:15:41;2.28;;;1.30;;
48871;SDS011;36154;51.674;7.824;2023-02-01T08:18:07;2.53;;;1.02;;
48871;SDS011;36154;51.674;7.824;2023-02-01T08:20:33;2.47;;;1.20;;
48871;SDS011;36154;51.674;7.824;2023-02-01T08:23:00;3.35;;;1.40;;
48871;SDS011;36154;51.674;7.824;2023-02-01T08:25:26;3.08;;;1.05;;
48871;SDS011;36154;51.674;7.824;2023-02-01T08:27:52;2.10;;;1.23;;
48871;SDS011;36154;51.674;7.824;2023-02-01T08:30:19;4.25;;;1.17;;
48871;SDS011;36154;51.674;7.824;2023-02-01T08:32:45;1.83;;;0.93;;
48871;SDS011;36154;51.674;7.824;2023-02-01T08:35:10;2.70;;;1.15;;
48871;SDS011;36154;51.674;7.824;2023-02-01T08:37:35;3.63;;;1.08;;
48871;SDS011;36154;51.674;7.824;2023-02-01T08:40:02;2.50;;;1.30;;
48871;SDS011;36154;51.674;7.824;2023-02-01T08:42:28;2.38;;;1.20;;
48871;SDS011;36154;51.674;7.824;2023-02-01T08:45:13;2.00;;;1.30;;
48871;SDS011;36154;51.674;7.824;2023-02-01T08:47:38;1.50;;;1.15;;
48871;SDS011;36154;51.674;7.824;2023-02-01T08:50:04;1.80;;;1.20;;
48871;SDS011;36154;51.674;7.824;2023-02-01T08:52:29;2.35;;;0.80;;
48871;SDS011;36154;51.674;7.824;2023-02-01T08:54:57;2.42;;;1.20;;
48871;SDS011;36154;51.674;7.824;2023-02-01T08:57:22;1.70;;;0.70;;
48871;SDS011;36154;51.674;7.824;2023-02-01T08:59:48;1.00;;;0.85;;
48871;SDS011;36154;51.674;7.824;2023-02-01T09:02:14;6.45;;;1.30;;
48871;SDS011;36154;51.674;7.824;2023-02-01T09:04:40;1.95;;;1.13;;
48871;SDS011;36154;51.674;7.824;2023-02-01T09:07:06;2.42;;;1.10;;
48871;SDS011;36154;51.674;7.824;2023-02-01T09:09:32;2.08;;;1.10;;
48871;SDS011;36154;51.674;7.824;2023-02-01T09:11:57;2.03;;;0.90;;
48871;SDS011;36154;51.674;7.824;2023-02-01T09:14:23;1.23;;;0.88;;
48871;SDS011;36154;51.674;7.824;2023-02-01T09:16:48;1.73;;;0.90;;
48871;SDS011;36154;51.674;7.824;2023-02-01T09:19:14;1.73;;;0.80;;
48871;SDS011;36154;51.674;7.824;2023-02-01T09:21:39;1.10;;;0.85;;
48871;SDS011;36154;51.674;7.824;2023-02-01T09:24:05;1.98;;;0.80;;
48871;SDS011;36154;51.674;7.824;2023-02-01T09:26:31;1.58;;;0.82;;
48871;SDS011;36154;51.674;7.824;2023-02-01T09:28:59;2.25;;;0.90;;
48871;SDS011;36154;51.674;7.824;2023-02-01T09:31:25;2.20;;;0.95;;
48871;SDS011;36154;51.674;7.824;2023-02-01T09:33:50;2.25;;;0.80;;
48871;SDS011;36154;51.674;7.824;2023-02-01T09:36:15;1.25;;;0.73;;
48871;SDS011;36154;51.674;7.824;2023-02-01T09:38:41;1.05;;;0.70;;
48871;SDS011;36154;51.674;7.824;2023-02-01T09:41:10;1.85;;;0.68;;
48871;SDS011;36154;51.674;7.824;2023-02-01T09:48:58;1.20;;;0.77;;
48871;SDS011;36154;51.674;7.824;2023-02-01T09:51:39;1.30;;;0.80;;
48871;SDS011;36154;51.674;7.824;2023-02-01T09:54:22;1.42;;;0.80;;
48871;SDS011;36154;51.674;7.824;2023-02-01T09:57:01;1.60;;;0.80;;
48871;SDS011;36154;51.674;7.824;2023-02-01T10:02:17;1.83;;;0.80;;
48871;SDS011;36154;51.674;7.824;2023-02-01T10:04:45;1.95;;;0.77;;
48871;SDS011;36154;51.674;7.824;2023-02-01T10:07:19;1.42;;;0.90;;
48871;SDS011;36154;51.674;7.824;2023-02-01T10:21:12;1.20;;;0.88;;
48871;SDS011;36154;51.674;7.824;2023-02-01T10:26:46;1.08;;;0.60;;
48871;SDS011;36154;51.674;7.824;2023-02-01T10:29:20;1.85;;;0.80;;
48871;SDS011;36154;51.674;7.824;2023-02-01T10:31:51;1.77;;;0.52;;
48871;SDS011;36154;51.674;7.824;2023-02-01T10:34:18;0.93;;;0.60;;
48871;SDS011;36154;51.674;7.824;2023-02-01T10:39:21;1.00;;;0.82;;
48871;SDS011;36154;51.674;7.824;2023-02-01T10:41:46;2.00;;;0.63;;
48871;SDS011;36154;51.674;7.824;2023-02-01T10:44:16;2.95;;;1.00;;
48871;SDS011;36154;51.674;7.824;2023-02-01T10:46:44;1.98;;;0.73;;
48871;SDS011;36154;51.674;7.824;2023-02-01T10:54:40;2.03;;;1.00;;
48871;SDS011;36154;51.674;7.824;2023-02-01T10:57:09;1.35;;;0.70;;
48871;SDS011;36154;51.674;7.824;2023-02-01T10:59:36;1.58;;;1.00;;
48871;SDS011;36154;51.674;7.824;2023-02-01T11:02:05;1.83;;;0.80;;
48871;SDS011;36154;51.674;7.824;2023-02-01T11:04:47;1.17;;;0.80;;
48871;SDS011;36154;51.674;7.824;2023-02-01T11:07:17;1.77;;;0.80;;
48871;SDS011;36154;51.674;7.824;2023-02-01T11:09:51;0.98;;;0.77;;
48871;SDS011;36154;51.674;7.824;2023-02-01T11:17:33;1.52;;;0.90;;
48871;SDS011;36154;51.674;7.824;2023-02-01T11:20:03;0.90;;;0.75;;
48871;SDS011;36154;51.674;7.824;2023-02-01T11:22:37;1.27;;;0.80;;
48871;SDS011;36154;51.674;7.824;2023-02-01T11:25:07;3.05;;;0.90;;
48871;SDS011;36154;51.674;7.824;2023-02-01T11:27:35;1.67;;;0.88;;
48871;SDS011;36154;51.674;7.824;2023-02-01T11:30:00;1.85;;;0.90;;
48871;SDS011;36154;51.674;7.824;2023-02-01T11:32:28;2.08;;;0.88;;
48871;SDS011;36154;51.674;7.824;2023-02-01T11:34:59;1.90;;;0.90;;
48871;SDS011;36154;51.674;7.824;2023-02-01T11:37:36;1.33;;;0.93;;
48871;SDS011;36154;51.674;7.824;2023-02-01T11:45:30;1.00;;;0.80;;
48871;SDS011;36154;51.674;7.824;2023-02-01T11:47:57;1.23;;;0.65;;
48871;SDS011;36154;51.674;7.824;2023-02-01T11:50:32;1.63;;;0.80;;
48871;SDS011;36154;51.674;7.824;2023-02-01T11:53:32;1.00;;;0.68;;
48871;SDS011;36154;51.674;7.824;2023-02-01T11:58:34;1.02;;;0.70;;
48871;SDS011;36154;51.674;7.824;2023-02-01T12:03:57;1.88;;;0.80;;
48871;SDS011;36154;51.674;7.824;2023-02-01T12:06:53;2.83;;;0.95;;
48871;SDS011;36154;51.674;7.824;2023-02-01T12:12:06;1.50;;;0.80;;
48871;SDS011;36154;51.674;7.824;2023-02-01T12:14:43;2.55;;;1.20;;
48871;SDS011;36154;51.674;7.824;2023-02-01T12:20:00;2.58;;;1.20;;
48871;SDS011;36154;51.674;7.824;2023-02-01T12:22:40;1.02;;;0.90;;
48871;SDS011;36154;51.674;7.824;2023-02-01T12:28:03;2.95;;;1.13;;
48871;SDS011;36154;51.674;7.824;2023-02-01T12:36:12;2.97;;;1.27;;
48871;SDS011;36154;51.674;7.824;2023-02-01T12:44:16;3.22;;;1.50;;
48871;SDS011;36154;51.674;7.824;2023-02-01T12:46:50;3.03;;;1.38;;
48871;SDS011;36154;51.674;7.824;2023-02-01T12:49:23;1.80;;;0.90;;
48871;SDS011;36154;51.674;7.824;2023-02-01T12:52:06;2.00;;;1.10;;
48871;SDS011;36154;51.674;7.824;2023-02-01T12:54:49;4.03;;;1.20;;
48871;SDS011;36154;51.674;7.824;2023-02-01T12:57:25;3.72;;;1.20;;
48871;SDS011;36154;51.674;7.824;2023-02-01T13:02:42;1.83;;;0.85;;
48871;SDS011;36154;51.674;7.824;2023-02-01T13:05:20;3.50;;;1.30;;
48871;SDS011;36154;51.674;7.824;2023-02-01T13:07:53;2.28;;;1.23;;
48871;SDS011;36154;51.674;7.824;2023-02-01T13:10:28;1.90;;;0.98;;
48871;SDS011;36154;51.674;7.824;2023-02-01T13:13:01;2.15;;;1.02;;
48871;SDS011;36154;51.674;7.824;2023-02-01T13:15:28;2.30;;;1.33;;
48871;SDS011;36154;51.674;7.824;2023-02-01T13:17:58;2.58;;;1.20;;
48871;SDS011;36154;51.674;7.824;2023-02-01T13:23:33;2.33;;;1.00;;
48871;SDS011;36154;51.674;7.824;2023-02-01T13:26:01;1.30;;;0.93;;
48871;SDS011;36154;51.674;7.824;2023-02-01T13:31:22;3.00;;;1.38;;
48871;SDS011;36154;51.674;7.824;2023-02-01T13:33:52;1.33;;;0.80;;
48871;SDS011;36154;51.674;7.824;2023-02-01T13:39:24;4.75;;;1.30;;
48871;SDS011;36154;51.674;7.824;2023-02-01T13:41:57;1.60;;;0.97;;
48871;SDS011;36154;51.674;7.824;2023-02-01T13:44:40;1.65;;;0.93;;
48871;SDS011;36154;51.674;7.824;2023-02-01T13:47:13;1.83;;;0.98;;
48871;SDS011;36154;51.674;7.824;2023-02-01T13:49:43;1.88;;;0.85;;
48871;SDS011;36154;51.674;7.824;2023-02-01T13:52:21;1.92;;;0.98;;
48871;SDS011;36154;51.674;7.824;2023-02-01T13:55:00;1.38;;;0.98;;
48871;SDS011;36154;51.674;7.824;2023-02-01T13:57:50;3.40;;;1.10;;
48871;SDS011;36154;51.674;7.824;2023-02-01T14:00:30;0.95;;;0.65;;
48871;SDS011;36154;51.674;7.824;2023-02-01T14:21:45;1.25;;;0.80;;
48871;SDS011;36154;51.674;7.824;2023-02-01T14:26:48;0.50;;;0.43;;
48871;SDS011;36154;51.674;7.824;2023-02-01T14:32:00;1.80;;;0.80;;
48871;SDS011;36154;51.674;7.824;2023-02-01T14:47:50;2.40;;;0.90;;
48871;SDS011;36154;51.674;7.824;2023-02-01T14:52:58;2.03;;;0.77;;
48871;SDS011;36154;51.674;7.824;2023-02-01T14:55:37;1.60;;;0.77;;
48871;SDS011;36154;51.674;7.824;2023-02-01T15:01:22;1.70;;;0.55;;
48871;SDS011;36154;51.674;7.824;2023-02-01T15:03:53;0.85;;;0.50;;
48871;SDS011;36154;51.674;7.824;2023-02-01T15:06:29;1.23;;;0.90;;
48871;SDS011;36154;51.674;7.824;2023-02-01T15:08:58;1.08;;;0.80;;
48871;SDS011;36154;51.674;7.824;2023-02-01T15:11:26;1.30;;;0.68;;
48871;SDS011;36154;51.674;7.824;2023-02-01T15:13:52;3.17;;;0.60;;
48871;SDS011;36154;51.674;7.824;2023-02-01T15:16:19;1.20;;;0.63;;
48871;SDS011;36154;51.674;7.824;2023-02-01T15:18:47;2.00;;;0.70;;
48871;SDS011;36154;51.674;7.824;2023-02-01T15:21:17;2.85;;;0.80;;
48871;SDS011;36154;51.674;7.824;2023-02-01T15:23:44;4.32;;;0.90;;
48871;SDS011;36154;51.674;7.824;2023-02-01T15:26:24;2.08;;;0.80;;
48871;SDS011;36154;51.674;7.824;2023-02-01T15:28:50;2.25;;;1.00;;
48871;SDS011;36154;51.674;7.824;2023-02-01T15:31:15;5.03;;;1.15;;
48871;SDS011;36154;51.674;7.824;2023-02-01T15:33:57;1.15;;;0.98;;
48871;SDS011;36154;51.674;7.824;2023-02-01T15:36:22;2.05;;;0.90;;
48871;SDS011;36154;51.674;7.824;2023-02-01T15:39:11;3.67;;;1.10;;
48871;SDS011;36154;51.674;7.824;2023-02-01T15:41:57;2.88;;;1.45;;
48871;SDS011;36154;51.674;7.824;2023-02-01T15:44:45;2.70;;;1.08;;
48871;SDS011;36154;51.674;7.824;2023-02-01T15:47:23;1.90;;;0.93;;
48871;SDS011;36154;51.674;7.824;2023-02-01T15:49:51;2.40;;;0.90;;
48871;SDS011;36154;51.674;7.824;2023-02-01T15:52:25;2.38;;;1.10;;
48871;SDS011;36154;51.674;7.824;2023-02-01T15:54:58;2.28;;;1.20;;
48871;SDS011;36154;51.674;7.824;2023-02-01T15:57:43;2.30;;;1.08;;
48871;SDS011;36154;51.674;7.824;2023-02-01T16:00:22;2.00;;;0.90;;
48871;SDS011;36154;51.674;7.824;2023-02-01T16:02:51;1.42;;;1.10;;
48871;SDS011;36154;51.674;7.824;2023-02-01T16:05:26;2.55;;;1.10;;
48871;SDS011;36154;51.674;7.824;2023-02-01T16:08:03;2.50;;;1.00;;
48871;SDS011;36154;51.674;7.824;2023-02-01T16:10:38;2.30;;;1.13;;
48871;SDS011;36154;51.674;7.824;2023-02-01T16:13:05;1.35;;;0.60;;
48871;SDS011;36154;51.674;7.824;2023-02-01T16:15:31;0.88;;;0.65;;
48871;SDS011;36154;51.674;7.824;2023-02-01T16:17:56;1.75;;;0.82;;
48871;SDS011;36154;51.674;7.824;2023-02-01T16:20:21;0.90;;;0.55;;
48871;SDS011;36154;51.674;7.824;2023-02-01T16:22:47;2.75;;;0.98;;
48871;SDS011;36154;51.674;7.824;2023-02-01T16:25:12;1.95;;;0.80;;
48871;SDS011;36154;51.674;7.824;2023-02-01T16:27:37;1.40;;;0.95;;
48871;SDS011;36154;51.674;7.824;2023-02-01T16:30:02;1.77;;;0.80;;
48871;SDS011;36154;51.674;7.824;2023-02-01T16:32:28;1.88;;;0.90;;
48871;SDS011;36154;51.674;7.824;2023-02-01T16:34:56;1.20;;;0.80;;
48871;SDS011;36154;51.674;7.824;2023-02-01T16:37:22;4.72;;;0.85;;
48871;SDS011;36154;51.674;7.824;2023-02-01T16:39:49;1.00;;;0.60;;
48871;SDS011;36154;51.674;7.824;2023-02-01T16:42:15;1.33;;;0.80;;
48871;SDS011;36154;51.674;7.824;2023-02-01T16:44:41;2.17;;;0.82;;
48871;SDS011;36154;51.674;7.824;2023-02-01T16:47:17;0.90;;;0.68;;
48871;SDS011;36154;51.674;7.824;2023-02-01T16:49:46;2.22;;;0.88;;
48871;SDS011;36154;51.674;7.824;2023-02-01T16:52:15;1.70;;;0.88;;
48871;SDS011;36154;51.674;7.824;2023-02-01T16:54:43;2.35;;;0.80;;
48871;SDS011;36154;51.674;7.824;2023-02-01T16:57:12;1.15;;;0.77;;
48871;SDS011;36154;51.674;7.824;2023-02-01T16:59:40;3.17;;;0.80;;
48871;SDS011;36154;51.674;7.824;2023-02-01T17:02:06;1.77;;;0.93;;
48871;SDS011;36154;51.674;7.824;2023-02-01T17:04:34;1.08;;;0.80;;
48871;SDS011;36154;51.674;7.824;2023-02-01T17:07:00;0.68;;;0.45;;
48871;SDS011;36154;51.674;7.824;2023-02-01T17:09:33;3.40;;;0.83;;
48871;SDS011;36154;51.674;7.824;2023-02-01T17:11:59;1.20;;;0.65;;
48871;SDS011;36154;51.674;7.824;2023-02-01T17:14:24;2.08;;;0.90;;
48871;SDS011;36154;51.674;7.824;2023-02-01T17:16:50;0.93;;;0.60;;
48871;SDS011;36154;51.674;7.824;2023-02-01T17:19:16;2.38;;;0.88;;
48871;SDS011;36154;51.674;7.824;2023-02-01T17:21:48;1.30;;;0.70;;
48871;SDS011;36154;51.674;7.824;2023-02-01T17:24:17;1.88;;;0.90;;
48871;SDS011;36154;51.674;7.824;2023-02-01T17:26:44;1.20;;;0.60;;
48871;SDS011;36154;51.674;7.824;2023-02-01T17:29:10;0.88;;;0.55;;
48871;SDS011;36154;51.674;7.824;2023-02-01T17:31:37;1.83;;;0.55;;
48871;SDS011;36154;51.674;7.824;2023-02-01T17:34:05;2.67;;;0.68;;
48871;SDS011;36154;51.674;7.824;2023-02-01T17:36:31;2.75;;;1.10;;
48871;SDS011;36154;51.674;7.824;2023-02-01T17:38:56;1.27;;;0.50;;
48871;SDS011;36154;51.674;7.824;2023-02-01T17:41:23;1.90;;;0.60;;
48871;SDS011;36154;51.674;7.824;2023-02-01T17:43:48;0.73;;;0.65;;